CYWK

Details ICAO CYWK (YWK)
Name WABUSH
Region Canada
Timezone America/Goose_Bay (UTC-4.0)
Plans Departing 15
Arriving 22
Stats Elevation 1,808 ft / 551 m (AMSL)
Location 52.907429° -66.854885°
Runways 1
Magnetic Variation 19.919° W
Sunrise 2017-12-16 12:36:24 UTC / 2017-12-16 08:36:24 Local
Sunset 2017-12-16 20:12:39 UTC / 2017-12-16 16:12:39 Local
Advertisement - Login to hide

Runways

ID Width Length Bearing (true) Bearing (mag) Surface Threshold Offset Overrun Length
18 150 ft / 46 m 5,995 ft / 1,827 m 157.18° 177.10° Asphalt 0 ft / 0 m 0 ft / 0 m
36 150 ft / 46 m 5,995 ft / 1,827 m 337.18° 357.10° Asphalt 0 ft / 0 m 0 ft / 0 m

Map

Weather


0- 5 10 15 20 25 30 35+ Temperature / ° C

Clouds and Precipitation
Forecast for 2017-12-16 12:00 UTC. Updated 9 minutes ago

Ground ~20,000 ft ~40,000 ft Winds

METAR

CYWK 160700Z AUTO 25011G20KT 9SM BKN140 OVC160 M19/M23 A2934 RMK SLP988

TAF

TAF CYWK 160138Z 1602/1614 26015G25KT P6SM -SN OVC030 TEMPO 1602/1614 2SM -SN BLSN OVC015 PROB30 1606/1614 3/4SM -SN BLSN OVC007 RMK NXT FCST BY 160800Z

Frequencies

Tower 122.00 MHz MF
Approach 132.25 MHz MONTREAL CNTR
Warning: Do not use this data for real-world aviation or navigation. No guarantee of current accuracy is given.